sensor_id;sensor_type;location;lat;lon;timestamp;temperature;humidity
8093;DHT22;4089;52.420;13.334;2023-05-10T00:01:21;12.30;93.90
8093;DHT22;4089;52.420;13.334;2023-05-10T00:03:47;12.30;94.10
8093;DHT22;4089;52.420;13.334;2023-05-10T00:06:15;12.30;94.60
8093;DHT22;4089;52.420;13.334;2023-05-10T00:08:41;12.20;94.90
8093;DHT22;4089;52.420;13.334;2023-05-10T00:11:08;12.20;95.40
8093;DHT22;4089;52.420;13.334;2023-05-10T00:13:35;12.20;96.10
8093;DHT22;4089;52.420;13.334;2023-05-10T00:16:02;12.10;96.40
8093;DHT22;4089;52.420;13.334;2023-05-10T00:18:29;12.10;96.50
8093;DHT22;4089;52.420;13.334;2023-05-10T00:20:56;12.10;97.30
8093;DHT22;4089;52.420;13.334;2023-05-10T00:23:23;12.00;97.00
8093;DHT22;4089;52.420;13.334;2023-05-10T00:25:49;12.00;97.20
8093;DHT22;4089;52.420;13.334;2023-05-10T00:28:16;12.00;97.60
8093;DHT22;4089;52.420;13.334;2023-05-10T00:30:43;11.90;97.80
8093;DHT22;4089;52.420;13.334;2023-05-10T00:33:10;11.90;97.90
8093;DHT22;4089;52.420;13.334;2023-05-10T00:35:38;11.90;98.20
8093;DHT22;4089;52.420;13.334;2023-05-10T00:38:05;11.90;98.80
8093;DHT22;4089;52.420;13.334;2023-05-10T00:40:31;11.80;98.50
8093;DHT22;4089;52.420;13.334;2023-05-10T00:42:58;11.80;99.10
8093;DHT22;4089;52.420;13.334;2023-05-10T00:45:27;11.80;99.00
8093;DHT22;4089;52.420;13.334;2023-05-10T00:47:53;11.80;99.20
8093;DHT22;4089;52.420;13.334;2023-05-10T00:50:23;11.80;98.90
8093;DHT22;4089;52.420;13.334;2023-05-10T00:52:50;11.80;98.90
8093;DHT22;4089;52.420;13.334;2023-05-10T00:55:17;11.80;99.30
8093;DHT22;4089;52.420;13.334;2023-05-10T00:57:45;11.80;99.00
8093;DHT22;4089;52.420;13.334;2023-05-10T01:00:12;11.80;98.80
8093;DHT22;4089;52.420;13.334;2023-05-10T01:02:45;11.80;99.10
8093;DHT22;4089;52.420;13.334;2023-05-10T01:05:13;11.80;98.90
8093;DHT22;4089;52.420;13.334;2023-05-10T01:07:40;11.80;99.10
8093;DHT22;4089;52.420;13.334;2023-05-10T01:10:08;11.80;99.20
8093;DHT22;4089;52.420;13.334;2023-05-10T01:12:38;11.80;99.00
8093;DHT22;4089;52.420;13.334;2023-05-10T01:15:08;11.90;99.10
8093;DHT22;4089;52.420;13.334;2023-05-10T01:17:38;11.80;99.00
8093;DHT22;4089;52.420;13.334;2023-05-10T01:20:08;11.80;98.90
8093;DHT22;4089;52.420;13.334;2023-05-10T01:33:34;11.80;99.00
8093;DHT22;4089;52.420;13.334;2023-05-10T01:38:49;11.70;99.20
8093;DHT22;4089;52.420;13.334;2023-05-10T01:41:28;11.70;99.40
8093;DHT22;4089;52.420;13.334;2023-05-10T01:44:21;11.70;99.90
8093;DHT22;4089;52.420;13.334;2023-05-10T01:47:15;11.70;99.70
8093;DHT22;4089;52.420;13.334;2023-05-10T01:49:50;11.70;99.90
8093;DHT22;4089;52.420;13.334;2023-05-10T01:52:19;11.60;99.70
8093;DHT22;4089;52.420;13.334;2023-05-10T01:54:55;11.60;99.90
8093;DHT22;4089;52.420;13.334;2023-05-10T01:57:31;11.50;99.90
8093;DHT22;4089;52.420;13.334;2023-05-10T02:00:03;11.50;99.90
8093;DHT22;4089;52.420;13.334;2023-05-10T02:02:37;11.50;99.90
8093;DHT22;4089;52.420;13.334;2023-05-10T02:05:08;11.40;99.90
8093;DHT22;4089;52.420;13.334;2023-05-10T02:07:36;11.40;99.90
8093;DHT22;4089;52.420;13.334;2023-05-10T02:10:05;11.40;99.90
8093;DHT22;4089;52.420;13.334;2023-05-10T02:12:42;11.40;99.90
8093;DHT22;4089;52.420;13.334;2023-05-10T02:15:11;11.40;99.90
8093;DHT22;4089;52.420;13.334;2023-05-10T02:17:39;11.30;99.90
8093;DHT22;4089;52.420;13.334;2023-05-10T02:20:07;11.30;99.90
8093;DHT22;4089;52.420;13.334;2023-05-10T02:22:35;11.30;99.90
8093;DHT22;4089;52.420;13.334;2023-05-10T02:25:03;11.30;99.90
8093;DHT22;4089;52.420;13.334;2023-05-10T02:27:30;11.20;99.90
8093;DHT22;4089;52.420;13.334;2023-05-10T02:29:58;11.20;99.90
8093;DHT22;4089;52.420;13.334;2023-05-10T02:32:27;11.10;99.90
8093;DHT22;4089;52.420;13.334;2023-05-10T02:34:55;11.10;99.90
8093;DHT22;4089;52.420;13.334;2023-05-10T02:37:22;11.10;99.90
8093;DHT22;4089;52.420;13.334;2023-05-10T02:39:51;11.00;99.90
8093;DHT22;4089;52.420;13.334;2023-05-10T02:42:20;11.00;99.90
8093;DHT22;4089;52.420;13.334;2023-05-10T02:44:51;11.00;99.90
8093;DHT22;4089;52.420;13.334;2023-05-10T02:47:19;10.90;99.90
8093;DHT22;4089;52.420;13.334;2023-05-10T02:49:46;10.90;99.90
8093;DHT22;4089;52.420;13.334;2023-05-10T02:52:17;10.90;99.90
8093;DHT22;4089;52.420;13.334;2023-05-10T02:54:49;10.90;99.90
8093;DHT22;4089;52.420;13.334;2023-05-10T02:57:20;10.90;99.90
8093;DHT22;4089;52.420;13.334;2023-05-10T02:59:48;10.80;99.90
8093;DHT22;4089;52.420;13.334;2023-05-10T03:02:15;10.80;99.90
8093;DHT22;4089;52.420;13.334;2023-05-10T03:04:42;10.80;99.90
8093;DHT22;4089;52.420;13.334;2023-05-10T03:07:09;10.80;99.90
8093;DHT22;4089;52.420;13.334;2023-05-10T03:09:36;10.80;99.90
8093;DHT22;4089;52.420;13.334;2023-05-10T03:12:28;10.70;99.90
8093;DHT22;4089;52.420;13.334;2023-05-10T03:15:16;10.70;99.90
8093;DHT22;4089;52.420;13.334;2023-05-10T03:17:55;10.70;99.90
8093;DHT22;4089;52.420;13.334;2023-05-10T03:20:52;10.60;99.90
8093;DHT22;4089;52.420;13.334;2023-05-10T03:23:35;10.60;99.90
8093;DHT22;4089;52.420;13.334;2023-05-10T03:26:06;10.60;99.90
8093;DHT22;4089;52.420;13.334;2023-05-10T03:28:34;10.50;99.90
8093;DHT22;4089;52.420;13.334;2023-05-10T03:31:03;10.50;99.90
8093;DHT22;4089;52.420;13.334;2023-05-10T03:33:31;10.50;99.90
8093;DHT22;4089;52.420;13.334;2023-05-10T03:35:58;10.50;99.90
8093;DHT22;4089;52.420;13.334;2023-05-10T03:38:25;10.40;99.90
8093;DHT22;4089;52.420;13.334;2023-05-10T03:40:55;10.40;99.90
8093;DHT22;4089;52.420;13.334;2023-05-10T03:43:22;10.40;99.90
8093;DHT22;4089;52.420;13.334;2023-05-10T03:45:49;10.50;99.90
8093;DHT22;4089;52.420;13.334;2023-05-10T03:48:15;10.40;99.90
8093;DHT22;4089;52.420;13.334;2023-05-10T03:50:42;10.50;99.90
8093;DHT22;4089;52.420;13.334;2023-05-10T03:53:09;10.50;99.90
8093;DHT22;4089;52.420;13.334;2023-05-10T03:55:36;10.50;99.90
8093;DHT22;4089;52.420;13.334;2023-05-10T03:58:03;10.50;99.90
8093;DHT22;4089;52.420;13.334;2023-05-10T04:00:29;10.40;99.90
8093;DHT22;4089;52.420;13.334;2023-05-10T04:02:57;10.40;99.90
8093;DHT22;4089;52.420;13.334;2023-05-10T04:05:24;10.50;99.90
8093;DHT22;4089;52.420;13.334;2023-05-10T04:07:51;10.50;99.90
8093;DHT22;4089;52.420;13.334;2023-05-10T04:10:18;10.50;99.90
8093;DHT22;4089;52.420;13.334;2023-05-10T04:12:45;10.50;99.90
8093;DHT22;4089;52.420;13.334;2023-05-10T04:15:12;10.50;99.90
8093;DHT22;4089;52.420;13.334;2023-05-10T04:17:39;10.50;99.90
8093;DHT22;4089;52.420;13.334;2023-05-10T04:20:06;10.60;99.90
8093;DHT22;4089;52.420;13.334;2023-05-10T04:22:33;10.60;99.90
8093;DHT22;4089;52.420;13.334;2023-05-10T04:25:00;10.60;99.90
8093;DHT22;4089;52.420;13.334;2023-05-10T04:27:27;10.70;99.90
8093;DHT22;4089;52.420;13.334;2023-05-10T04:29:54;10.70;99.90
8093;DHT22;4089;52.420;13.334;2023-05-10T04:32:21;10.80;99.90
8093;DHT22;4089;52.420;13.334;2023-05-10T04:34:48;10.80;99.90
8093;DHT22;4089;52.420;13.334;2023-05-10T04:37:14;10.90;99.90
8093;DHT22;4089;52.420;13.334;2023-05-10T04:39:41;10.90;99.90
8093;DHT22;4089;52.420;13.334;2023-05-10T04:42:08;11.00;99.90
8093;DHT22;4089;52.420;13.334;2023-05-10T04:44:35;11.00;99.90
8093;DHT22;4089;52.420;13.334;2023-05-10T04:47:02;11.10;99.90
8093;DHT22;4089;52.420;13.334;2023-05-10T04:49:30;11.10;99.90
8093;DHT22;4089;52.420;13.334;2023-05-10T04:51:56;11.20;99.90
8093;DHT22;4089;52.420;13.334;2023-05-10T04:54:23;11.20;99.90
8093;DHT22;4089;52.420;13.334;2023-05-10T04:56:50;11.30;99.90
8093;DHT22;4089;52.420;13.334;2023-05-10T04:59:17;11.40;99.90
8093;DHT22;4089;52.420;13.334;2023-05-10T05:01:44;11.50;99.90
8093;DHT22;4089;52.420;13.334;2023-05-10T05:04:11;11.60;99.90
8093;DHT22;4089;52.420;13.334;2023-05-10T05:06:38;11.70;99.90
8093;DHT22;4089;52.420;13.334;2023-05-10T05:09:05;11.70;99.90
8093;DHT22;4089;52.420;13.334;2023-05-10T05:11:32;11.80;99.90
8093;DHT22;4089;52.420;13.334;2023-05-10T05:13:58;11.90;99.90
8093;DHT22;4089;52.420;13.334;2023-05-10T05:16:26;11.90;99.90
8093;DHT22;4089;52.420;13.334;2023-05-10T05:18:53;12.00;99.90
8093;DHT22;4089;52.420;13.334;2023-05-10T05:21:20;12.10;99.90
8093;DHT22;4089;52.420;13.334;2023-05-10T05:23:47;12.20;99.90
8093;DHT22;4089;52.420;13.334;2023-05-10T05:26:14;12.30;99.90
8093;DHT22;4089;52.420;13.334;2023-05-10T05:28:41;12.40;99.90
8093;DHT22;4089;52.420;13.334;2023-05-10T05:31:08;12.50;99.90
8093;DHT22;4089;52.420;13.334;2023-05-10T05:33:36;12.60;99.90
8093;DHT22;4089;52.420;13.334;2023-05-10T05:36:04;12.60;99.90
8093;DHT22;4089;52.420;13.334;2023-05-10T05:38:31;12.80;99.90
8093;DHT22;4089;52.420;13.334;2023-05-10T05:40:58;12.80;99.90
8093;DHT22;4089;52.420;13.334;2023-05-10T05:43:25;12.90;99.90
8093;DHT22;4089;52.420;13.334;2023-05-10T05:45:52;13.00;99.90
8093;DHT22;4089;52.420;13.334;2023-05-10T05:48:21;13.10;99.90
8093;DHT22;4089;52.420;13.334;2023-05-10T05:50:48;13.20;99.90
8093;DHT22;4089;52.420;13.334;2023-05-10T05:53:15;13.30;99.90
8093;DHT22;4089;52.420;13.334;2023-05-10T05:55:56;13.40;99.90
8093;DHT22;4089;52.420;13.334;2023-05-10T05:58:24;13.50;99.90
8093;DHT22;4089;52.420;13.334;2023-05-10T06:00:52;13.60;99.90
8093;DHT22;4089;52.420;13.334;2023-05-10T06:03:19;13.70;99.90
8093;DHT22;4089;52.420;13.334;2023-05-10T06:05:46;13.70;99.90
8093;DHT22;4089;52.420;13.334;2023-05-10T06:08:13;13.90;99.90
8093;DHT22;4089;52.420;13.334;2023-05-10T06:10:40;14.00;99.90
8093;DHT22;4089;52.420;13.334;2023-05-10T06:13:07;14.00;99.90
8093;DHT22;4089;52.420;13.334;2023-05-10T06:15:33;14.10;99.90
8093;DHT22;4089;52.420;13.334;2023-05-10T06:18:01;14.10;99.90
8093;DHT22;4089;52.420;13.334;2023-05-10T06:20:28;14.20;99.90
8093;DHT22;4089;52.420;13.334;2023-05-10T06:22:54;14.30;99.90
8093;DHT22;4089;52.420;13.334;2023-05-10T06:25:21;14.40;99.90
8093;DHT22;4089;52.420;13.334;2023-05-10T06:27:48;14.50;99.90
8093;DHT22;4089;52.420;13.334;2023-05-10T06:30:19;14.60;99.90
8093;DHT22;4089;52.420;13.334;2023-05-10T06:32:46;14.70;99.90
8093;DHT22;4089;52.420;13.334;2023-05-10T06:35:13;14.70;99.90
8093;DHT22;4089;52.420;13.334;2023-05-10T06:37:40;14.80;99.90
8093;DHT22;4089;52.420;13.334;2023-05-10T06:40:08;14.90;99.90
8093;DHT22;4089;52.420;13.334;2023-05-10T06:42:35;14.90;99.30
8093;DHT22;4089;52.420;13.334;2023-05-10T06:45:03;15.00;99.50
8093;DHT22;4089;52.420;13.334;2023-05-10T06:47:30;15.10;99.80
8093;DHT22;4089;52.420;13.334;2023-05-10T06:49:57;15.20;99.90
8093;DHT22;4089;52.420;13.334;2023-05-10T06:52:23;15.30;99.00
8093;DHT22;4089;52.420;13.334;2023-05-10T06:54:50;15.40;99.00
8093;DHT22;4089;52.420;13.334;2023-05-10T06:57:17;15.40;98.50
8093;DHT22;4089;52.420;13.334;2023-05-10T07:00:00;15.50;98.40
8093;DHT22;4089;52.420;13.334;2023-05-10T07:02:27;15.60;98.40
8093;DHT22;4089;52.420;13.334;2023-05-10T07:04:54;15.50;97.80
8093;DHT22;4089;52.420;13.334;2023-05-10T07:07:21;15.50;97.70
8093;DHT22;4089;52.420;13.334;2023-05-10T07:09:48;15.60;97.80
8093;DHT22;4089;52.420;13.334;2023-05-10T07:12:16;15.80;98.00
8093;DHT22;4089;52.420;13.334;2023-05-10T07:14:43;15.80;97.80
8093;DHT22;4089;52.420;13.334;2023-05-10T07:17:10;15.80;97.30
8093;DHT22;4089;52.420;13.334;2023-05-10T07:19:36;15.90;96.70
8093;DHT22;4089;52.420;13.334;2023-05-10T07:22:03;15.90;96.60
8093;DHT22;4089;52.420;13.334;2023-05-10T07:24:31;16.00;96.50
8093;DHT22;4089;52.420;13.334;2023-05-10T07:26:59;16.10;96.90
8093;DHT22;4089;52.420;13.334;2023-05-10T07:29:26;16.30;96.30
8093;DHT22;4089;52.420;13.334;2023-05-10T07:31:53;16.40;96.30
8093;DHT22;4089;52.420;13.334;2023-05-10T07:34:22;16.50;95.40
8093;DHT22;4089;52.420;13.334;2023-05-10T07:36:49;16.50;95.50
8093;DHT22;4089;52.420;13.334;2023-05-10T07:39:16;16.50;95.30
8093;DHT22;4089;52.420;13.334;2023-05-10T07:41:53;16.70;96.10
8093;DHT22;4089;52.420;13.334;2023-05-10T07:44:20;16.90;95.60
8093;DHT22;4089;52.420;13.334;2023-05-10T07:46:47;16.90;95.30
8093;DHT22;4089;52.420;13.334;2023-05-10T07:49:15;17.00;95.00
8093;DHT22;4089;52.420;13.334;2023-05-10T07:51:42;17.10;94.80
8093;DHT22;4089;52.420;13.334;2023-05-10T07:54:09;17.00;94.40
8093;DHT22;4089;52.420;13.334;2023-05-10T07:56:36;17.10;94.40
8093;DHT22;4089;52.420;13.334;2023-05-10T07:59:03;17.20;94.90
8093;DHT22;4089;52.420;13.334;2023-05-10T08:01:32;17.30;94.60
8093;DHT22;4089;52.420;13.334;2023-05-10T08:04:00;17.40;94.90
8093;DHT22;4089;52.420;13.334;2023-05-10T08:06:28;17.50;95.00
8093;DHT22;4089;52.420;13.334;2023-05-10T08:08:56;17.60;94.10
8093;DHT22;4089;52.420;13.334;2023-05-10T08:11:24;17.70;95.30
8093;DHT22;4089;52.420;13.334;2023-05-10T08:13:51;17.80;94.20
8093;DHT22;4089;52.420;13.334;2023-05-10T08:16:18;17.90;94.60
8093;DHT22;4089;52.420;13.334;2023-05-10T08:18:46;17.90;94.80
8093;DHT22;4089;52.420;13.334;2023-05-10T08:21:14;18.00;92.90
8093;DHT22;4089;52.420;13.334;2023-05-10T08:23:41;17.90;93.20
8093;DHT22;4089;52.420;13.334;2023-05-10T08:26:10;18.10;94.20
8093;DHT22;4089;52.420;13.334;2023-05-10T08:28:38;18.30;94.20
8093;DHT22;4089;52.420;13.334;2023-05-10T08:31:05;18.20;93.00
8093;DHT22;4089;52.420;13.334;2023-05-10T08:33:32;18.30;94.10
8093;DHT22;4089;52.420;13.334;2023-05-10T08:35:59;18.50;92.70
8093;DHT22;4089;52.420;13.334;2023-05-10T08:38:26;18.60;92.80
8093;DHT22;4089;52.420;13.334;2023-05-10T08:40:54;18.50;92.60
8093;DHT22;4089;52.420;13.334;2023-05-10T08:43:29;18.50;92.10
8093;DHT22;4089;52.420;13.334;2023-05-10T08:46:00;18.60;92.80
8093;DHT22;4089;52.420;13.334;2023-05-10T08:48:29;18.50;90.80
8093;DHT22;4089;52.420;13.334;2023-05-10T08:50:58;18.50;92.10
8093;DHT22;4089;52.420;13.334;2023-05-10T08:53:27;18.70;92.10
8093;DHT22;4089;52.420;13.334;2023-05-10T08:55:55;18.80;91.50
8093;DHT22;4089;52.420;13.334;2023-05-10T08:58:22;18.80;90.40
8093;DHT22;4089;52.420;13.334;2023-05-10T09:00:49;18.70;90.30
8093;DHT22;4089;52.420;13.334;2023-05-10T09:03:19;18.80;90.60
8093;DHT22;4089;52.420;13.334;2023-05-10T09:05:46;19.00;91.20
8093;DHT22;4089;52.420;13.334;2023-05-10T09:08:14;19.00;90.00
8093;DHT22;4089;52.420;13.334;2023-05-10T09:10:46;19.20;91.30
8093;DHT22;4089;52.420;13.334;2023-05-10T09:13:15;19.10;90.00
8093;DHT22;4089;52.420;13.334;2023-05-10T09:15:45;19.20;91.00
8093;DHT22;4089;52.420;13.334;2023-05-10T09:18:12;19.40;91.00
8093;DHT22;4089;52.420;13.334;2023-05-10T09:20:39;19.40;89.90
8093;DHT22;4089;52.420;13.334;2023-05-10T09:23:07;19.30;90.00
8093;DHT22;4089;52.420;13.334;2023-05-10T09:25:34;19.50;89.00
8093;DHT22;4089;52.420;13.334;2023-05-10T09:28:01;19.50;88.10
8093;DHT22;4089;52.420;13.334;2023-05-10T09:30:30;19.50;88.50
8093;DHT22;4089;52.420;13.334;2023-05-10T09:32:58;19.60;87.90
8093;DHT22;4089;52.420;13.334;2023-05-10T09:35:28;19.60;88.30
8093;DHT22;4089;52.420;13.334;2023-05-10T09:37:59;19.80;89.40
8093;DHT22;4089;52.420;13.334;2023-05-10T09:40:27;19.90;87.80
8093;DHT22;4089;52.420;13.334;2023-05-10T09:43:07;19.90;89.20
8093;DHT22;4089;52.420;13.334;2023-05-10T09:45:35;20.00;88.40
8093;DHT22;4089;52.420;13.334;2023-05-10T09:48:04;20.00;86.00
8093;DHT22;4089;52.420;13.334;2023-05-10T09:50:31;20.10;88.60
8093;DHT22;4089;52.420;13.334;2023-05-10T09:53:02;20.20;84.90
8093;DHT22;4089;52.420;13.334;2023-05-10T09:55:39;20.20;85.10
8093;DHT22;4089;52.420;13.334;2023-05-10T09:58:07;20.40;85.90
8093;DHT22;4089;52.420;13.334;2023-05-10T10:00:44;20.40;85.50
8093;DHT22;4089;52.420;13.334;2023-05-10T10:03:16;20.30;84.90
8093;DHT22;4089;52.420;13.334;2023-05-10T10:05:44;20.50;87.70
8093;DHT22;4089;52.420;13.334;2023-05-10T10:08:12;20.60;84.60
8093;DHT22;4089;52.420;13.334;2023-05-10T10:10:39;20.80;87.10
8093;DHT22;4089;52.420;13.334;2023-05-10T10:13:12;21.00;86.30
8093;DHT22;4089;52.420;13.334;2023-05-10T10:15:39;21.10;84.90
8093;DHT22;4089;52.420;13.334;2023-05-10T10:18:06;21.20;82.40
8093;DHT22;4089;52.420;13.334;2023-05-10T10:20:37;21.20;81.10
8093;DHT22;4089;52.420;13.334;2023-05-10T10:23:04;21.30;83.30
8093;DHT22;4089;52.420;13.334;2023-05-10T10:25:31;21.50;80.90
8093;DHT22;4089;52.420;13.334;2023-05-10T10:28:12;21.50;79.70
8093;DHT22;4089;52.420;13.334;2023-05-10T10:30:43;21.60;80.40
8093;DHT22;4089;52.420;13.334;2023-05-10T10:36:22;21.60;79.30
8093;DHT22;4089;52.420;13.334;2023-05-10T10:41:35;21.70;82.10
8093;DHT22;4089;52.420;13.334;2023-05-10T10:44:28;21.80;77.50
8093;DHT22;4089;52.420;13.334;2023-05-10T10:49:52;21.90;76.50
8093;DHT22;4089;52.420;13.334;2023-05-10T10:52:31;21.90;79.70
8093;DHT22;4089;52.420;13.334;2023-05-10T10:55:08;22.00;74.10
8093;DHT22;4089;52.420;13.334;2023-05-10T10:57:45;22.10;76.00
8093;DHT22;4089;52.420;13.334;2023-05-10T11:00:35;22.10;71.00
8093;DHT22;4089;52.420;13.334;2023-05-10T11:03:06;22.00;70.60
8093;DHT22;4089;52.420;13.334;2023-05-10T11:05:44;22.20;72.50
8093;DHT22;4089;52.420;13.334;2023-05-10T11:08:16;22.30;69.20
8093;DHT22;4089;52.420;13.334;2023-05-10T11:11:14;22.50;71.90
8093;DHT22;4089;52.420;13.334;2023-05-10T11:16:22;22.80;71.70
8093;DHT22;4089;52.420;13.334;2023-05-10T11:19:04;22.60;67.10
8093;DHT22;4089;52.420;13.334;2023-05-10T11:21:33;22.40;66.70
8093;DHT22;4089;52.420;13.334;2023-05-10T11:24:01;22.30;67.20
8093;DHT22;4089;52.420;13.334;2023-05-10T11:26:34;22.40;68.90
8093;DHT22;4089;52.420;13.334;2023-05-10T11:29:01;22.40;67.20
8093;DHT22;4089;52.420;13.334;2023-05-10T11:31:29;22.60;67.80
8093;DHT22;4089;52.420;13.334;2023-05-10T11:33:58;22.80;67.70
8093;DHT22;4089;52.420;13.334;2023-05-10T11:36:35;23.00;70.70
8093;DHT22;4089;52.420;13.334;2023-05-10T11:39:04;23.00;65.00
8093;DHT22;4089;52.420;13.334;2023-05-10T11:41:31;23.00;68.20
8093;DHT22;4089;52.420;13.334;2023-05-10T11:43:58;23.10;64.80
8093;DHT22;4089;52.420;13.334;2023-05-10T11:46:27;23.00;62.50
8093;DHT22;4089;52.420;13.334;2023-05-10T11:48:57;22.90;63.00
8093;DHT22;4089;52.420;13.334;2023-05-10T11:51:25;22.90;59.90
8093;DHT22;4089;52.420;13.334;2023-05-10T11:53:56;23.10;65.20
8093;DHT22;4089;52.420;13.334;2023-05-10T11:56:24;23.30;62.30
8093;DHT22;4089;52.420;13.334;2023-05-10T11:58:55;23.10;59.30
8093;DHT22;4089;52.420;13.334;2023-05-10T12:01:23;23.00;58.30
8093;DHT22;4089;52.420;13.334;2023-05-10T12:03:52;23.00;59.90
8093;DHT22;4089;52.420;13.334;2023-05-10T12:06:20;23.10;61.00
8093;DHT22;4089;52.420;13.334;2023-05-10T12:08:48;23.00;59.90
8093;DHT22;4089;52.420;13.334;2023-05-10T12:11:19;23.20;59.40
8093;DHT22;4089;52.420;13.334;2023-05-10T12:13:47;23.40;60.50
8093;DHT22;4089;52.420;13.334;2023-05-10T12:16:19;23.50;58.80
8093;DHT22;4089;52.420;13.334;2023-05-10T12:18:51;23.50;59.30
8093;DHT22;4089;52.420;13.334;2023-05-10T12:21:19;23.50;58.60
8093;DHT22;4089;52.420;13.334;2023-05-10T12:23:52;23.50;58.30
8093;DHT22;4089;52.420;13.334;2023-05-10T12:26:25;23.60;59.80
8093;DHT22;4089;52.420;13.334;2023-05-10T12:28:55;23.70;57.50
8093;DHT22;4089;52.420;13.334;2023-05-10T12:31:22;23.60;53.30
8093;DHT22;4089;52.420;13.334;2023-05-10T12:33:49;23.40;53.70
8093;DHT22;4089;52.420;13.334;2023-05-10T12:36:16;23.40;52.60
8093;DHT22;4089;52.420;13.334;2023-05-10T12:38:45;23.40;53.70
8093;DHT22;4089;52.420;13.334;2023-05-10T12:41:16;23.40;52.80
8093;DHT22;4089;52.420;13.334;2023-05-10T12:43:43;23.40;53.20
8093;DHT22;4089;52.420;13.334;2023-05-10T12:46:13;23.40;54.20
8093;DHT22;4089;52.420;13.334;2023-05-10T12:48:42;23.50;53.90
8093;DHT22;4089;52.420;13.334;2023-05-10T12:51:10;23.60;54.50
8093;DHT22;4089;52.420;13.334;2023-05-10T12:53:39;23.70;56.70
8093;DHT22;4089;52.420;13.334;2023-05-10T12:56:10;23.80;53.80
8093;DHT22;4089;52.420;13.334;2023-05-10T12:58:37;24.00;53.30
8093;DHT22;4089;52.420;13.334;2023-05-10T13:01:05;24.00;55.70
8093;DHT22;4089;52.420;13.334;2023-05-10T13:03:32;24.20;56.80
8093;DHT22;4089;52.420;13.334;2023-05-10T13:05:58;24.30;54.60
8093;DHT22;4089;52.420;13.334;2023-05-10T13:08:25;24.20;52.10
8093;DHT22;4089;52.420;13.334;2023-05-10T13:10:53;24.20;54.50
8093;DHT22;4089;52.420;13.334;2023-05-10T13:13:20;24.10;52.70
8093;DHT22;4089;52.420;13.334;2023-05-10T13:15:47;24.10;52.60
8093;DHT22;4089;52.420;13.334;2023-05-10T13:18:14;23.80;50.40
8093;DHT22;4089;52.420;13.334;2023-05-10T13:20:40;23.70;50.00
8093;DHT22;4089;52.420;13.334;2023-05-10T13:23:07;23.80;52.10
8093;DHT22;4089;52.420;13.334;2023-05-10T13:25:34;23.90;52.80
8093;DHT22;4089;52.420;13.334;2023-05-10T13:28:01;24.20;54.10
8093;DHT22;4089;52.420;13.334;2023-05-10T13:30:28;24.20;53.90
8093;DHT22;4089;52.420;13.334;2023-05-10T13:32:55;24.20;50.80
8093;DHT22;4089;52.420;13.334;2023-05-10T13:35:22;24.20;48.80
8093;DHT22;4089;52.420;13.334;2023-05-10T13:37:49;24.20;49.90
8093;DHT22;4089;52.420;13.334;2023-05-10T13:40:16;24.10;51.00
8093;DHT22;4089;52.420;13.334;2023-05-10T13:42:43;24.00;51.40
8093;DHT22;4089;52.420;13.334;2023-05-10T13:45:10;24.40;49.80
8093;DHT22;4089;52.420;13.334;2023-05-10T13:47:38;24.50;49.20
8093;DHT22;4089;52.420;13.334;2023-05-10T13:50:06;24.70;51.00
8093;DHT22;4089;52.420;13.334;2023-05-10T13:52:33;25.30;48.60
8093;DHT22;4089;52.420;13.334;2023-05-10T13:55:00;25.60;44.00
8093;DHT22;4089;52.420;13.334;2023-05-10T13:57:27;25.50;43.70
8093;DHT22;4089;52.420;13.334;2023-05-10T13:59:55;25.60;46.50
8093;DHT22;4089;52.420;13.334;2023-05-10T14:02:23;25.50;43.70
8093;DHT22;4089;52.420;13.334;2023-05-10T14:04:51;25.10;45.40
8093;DHT22;4089;52.420;13.334;2023-05-10T14:07:18;25.50;47.90
8093;DHT22;4089;52.420;13.334;2023-05-10T14:09:44;26.20;43.20
8093;DHT22;4089;52.420;13.334;2023-05-10T14:12:11;26.20;43.30
8093;DHT22;4089;52.420;13.334;2023-05-10T14:14:38;26.00;42.90
8093;DHT22;4089;52.420;13.334;2023-05-10T14:17:05;26.20;43.90
8093;DHT22;4089;52.420;13.334;2023-05-10T14:19:32;26.90;43.30
8093;DHT22;4089;52.420;13.334;2023-05-10T14:22:00;27.50;41.80
8093;DHT22;4089;52.420;13.334;2023-05-10T14:24:27;27.80;39.40
8093;DHT22;4089;52.420;13.334;2023-05-10T14:26:54;27.20;36.60
8093;DHT22;4089;52.420;13.334;2023-05-10T14:29:21;26.50;39.30
8093;DHT22;4089;52.420;13.334;2023-05-10T14:31:49;26.00;38.60
8093;DHT22;4089;52.420;13.334;2023-05-10T14:34:16;26.10;39.70
8093;DHT22;4089;52.420;13.334;2023-05-10T14:36:42;26.00;40.50
8093;DHT22;4089;52.420;13.334;2023-05-10T14:39:09;25.80;41.60
8093;DHT22;4089;52.420;13.334;2023-05-10T14:41:39;25.80;39.10
8093;DHT22;4089;52.420;13.334;2023-05-10T14:44:09;25.40;37.70
8093;DHT22;4089;52.420;13.334;2023-05-10T14:46:36;25.00;38.70
8093;DHT22;4089;52.420;13.334;2023-05-10T14:49:03;24.80;38.50
8093;DHT22;4089;52.420;13.334;2023-05-10T14:51:30;24.90;38.90
8093;DHT22;4089;52.420;13.334;2023-05-10T14:53:58;25.20;39.10
8093;DHT22;4089;52.420;13.334;2023-05-10T14:56:25;25.20;39.00
8093;DHT22;4089;52.420;13.334;2023-05-10T14:58:54;25.30;39.00
8093;DHT22;4089;52.420;13.334;2023-05-10T15:01:22;25.60;38.60
8093;DHT22;4089;52.420;13.334;2023-05-10T15:03:50;25.20;38.50
8093;DHT22;4089;52.420;13.334;2023-05-10T15:06:23;25.50;40.50
8093;DHT22;4089;52.420;13.334;2023-05-10T15:08:51;26.10;40.80
8093;DHT22;4089;52.420;13.334;2023-05-10T15:11:18;26.30;38.60
8093;DHT22;4089;52.420;13.334;2023-05-10T15:13:45;26.30;37.80
8093;DHT22;4089;52.420;13.334;2023-05-10T15:16:11;26.00;40.40
8093;DHT22;4089;52.420;13.334;2023-05-10T15:18:38;26.00;40.00
8093;DHT22;4089;52.420;13.334;2023-05-10T15:21:05;25.90;39.20
8093;DHT22;4089;52.420;13.334;2023-05-10T15:23:32;26.00;39.10
8093;DHT22;4089;52.420;13.334;2023-05-10T15:26:00;26.30;38.60
8093;DHT22;4089;52.420;13.334;2023-05-10T15:28:27;26.50;40.00
8093;DHT22;4089;52.420;13.334;2023-05-10T15:30:54;26.70;37.70
8093;DHT22;4089;52.420;13.334;2023-05-10T15:33:22;26.50;36.70
8093;DHT22;4089;52.420;13.334;2023-05-10T15:35:49;26.70;36.60
8093;DHT22;4089;52.420;13.334;2023-05-10T15:38:16;26.50;37.70
8093;DHT22;4089;52.420;13.334;2023-05-10T15:40:42;26.10;37.30
8093;DHT22;4089;52.420;13.334;2023-05-10T15:43:09;25.60;38.10
8093;DHT22;4089;52.420;13.334;2023-05-10T15:45:36;25.30;39.40
8093;DHT22;4089;52.420;13.334;2023-05-10T15:48:03;25.10;40.20
8093;DHT22;4089;52.420;13.334;2023-05-10T15:50:30;24.90;40.10
8093;DHT22;4089;52.420;13.334;2023-05-10T15:52:57;24.70;39.80
8093;DHT22;4089;52.420;13.334;2023-05-10T15:55:24;24.30;41.20
8093;DHT22;4089;52.420;13.334;2023-05-10T15:57:51;24.20;41.60
8093;DHT22;4089;52.420;13.334;2023-05-10T16:00:18;23.80;52.00
8093;DHT22;4089;52.420;13.334;2023-05-10T16:02:45;23.50;55.80
8093;DHT22;4089;52.420;13.334;2023-05-10T16:05:12;23.20;58.00
8093;DHT22;4089;52.420;13.334;2023-05-10T16:07:39;23.00;59.40
8093;DHT22;4089;52.420;13.334;2023-05-10T16:10:09;22.80;62.20
8093;DHT22;4089;52.420;13.334;2023-05-10T16:12:37;22.60;66.00
8093;DHT22;4089;52.420;13.334;2023-05-10T16:15:05;22.60;68.80
8093;DHT22;4089;52.420;13.334;2023-05-10T16:17:32;22.60;70.80
8093;DHT22;4089;52.420;13.334;2023-05-10T16:19:59;22.60;72.60